createdAt,value
2023-03-07T00:02:45.839Z,-0.88
2023-03-07T00:05:51.916Z,-0.88
2023-03-07T00:09:05.043Z,-0.94
2023-03-07T00:12:12.229Z,-1.03
2023-03-07T00:15:19.298Z,-1.13
2023-03-07T00:18:25.281Z,-1.18
2023-03-07T00:21:32.561Z,-1.20
2023-03-07T00:24:41.351Z,-1.13
2023-03-07T00:27:48.132Z,-1.12
2023-03-07T00:30:54.018Z,-1.19
2023-03-07T00:34:00.765Z,-1.15
2023-03-07T00:37:09.763Z,-1.05
2023-03-07T00:40:20.416Z,-1.03
2023-03-07T00:43:26.384Z,-1.05
2023-03-07T00:46:33.231Z,-1.24
2023-03-07T00:49:39.293Z,-1.23
2023-03-07T00:52:46.256Z,-1.29
2023-03-07T00:56:05.794Z,-1.44
2023-03-07T00:59:13.317Z,-1.44
2023-03-07T01:02:25.238Z,-1.49
2023-03-07T01:05:32.179Z,-1.50
2023-03-07T01:08:39.218Z,-1.47
2023-03-07T01:11:48.892Z,-1.39
2023-03-07T01:14:55.125Z,-1.35
2023-03-07T01:18:02.524Z,-1.31
2023-03-07T01:21:17.458Z,-1.34
2023-03-07T01:24:24.254Z,-1.37
2023-03-07T01:27:33.767Z,-1.30
2023-03-07T01:30:40.871Z,-1.24
2023-03-07T01:33:47.252Z,-1.22
2023-03-07T01:36:54.573Z,-1.17
2023-03-07T01:40:00.602Z,-1.22
2023-03-07T01:43:30.194Z,-1.34
2023-03-07T01:46:50.249Z,-1.32
2023-03-07T01:50:00.023Z,-1.29
2023-03-07T01:53:06.584Z,-1.29
2023-03-07T01:56:15.690Z,-1.32
2023-03-07T01:59:34.921Z,-1.24
2023-03-07T02:02:48.758Z,-1.22
2023-03-07T02:06:05.585Z,-1.29
2023-03-07T02:09:20.806Z,-1.29
2023-03-07T02:12:27.646Z,-1.23
2023-03-07T02:15:38.320Z,-1.17
2023-03-07T02:18:50.660Z,-1.19
2023-03-07T02:22:12.546Z,-1.20
2023-03-07T02:25:33.608Z,-1.14
2023-03-07T02:28:52.212Z,-1.11
2023-03-07T02:32:00.576Z,-1.14
2023-03-07T02:35:19.179Z,-1.18
2023-03-07T02:38:29.186Z,-1.24
2023-03-07T02:41:41.219Z,-1.21
2023-03-07T02:45:04.535Z,-1.19
2023-03-07T02:48:14.333Z,-1.27
2023-03-07T02:51:20.356Z,-1.19
2023-03-07T02:54:28.104Z,-1.16
2023-03-07T02:57:37.435Z,-1.08
2023-03-07T03:00:48.117Z,-0.96
2023-03-07T03:03:54.285Z,-1.04
2023-03-07T03:07:07.830Z,-1.11
2023-03-07T03:10:15.302Z,-1.13
2023-03-07T03:13:31.928Z,-1.24
2023-03-07T03:16:40.547Z,-1.24
2023-03-07T03:19:47.951Z,-1.19
2023-03-07T03:22:55.810Z,-1.14
2023-03-07T03:26:14.832Z,-1.20
2023-03-07T03:29:21.352Z,-1.19
2023-03-07T03:32:30.825Z,-1.29
2023-03-07T03:35:36.821Z,-1.25
2023-03-07T03:38:49.833Z,-1.24
2023-03-07T03:42:09.979Z,-1.25
2023-03-07T03:45:17.886Z,-1.24
2023-03-07T03:48:26.986Z,-1.17
2023-03-07T03:51:34.897Z,-1.24
2023-03-07T03:54:40.984Z,-1.23
2023-03-07T03:57:47.766Z,-1.32
2023-03-07T04:00:56.647Z,-1.25
2023-03-07T04:04:06.523Z,-1.19
2023-03-07T04:07:12.791Z,-1.17
2023-03-07T04:10:20.316Z,-1.11
2023-03-07T04:13:26.265Z,-1.19
2023-03-07T04:16:33.073Z,-1.18
2023-03-07T04:19:42.262Z,-1.17
2023-03-07T04:22:49.195Z,-1.20
2023-03-07T04:25:59.907Z,-1.17
2023-03-07T04:29:07.832Z,-1.19
2023-03-07T04:32:19.265Z,-1.30
2023-03-07T04:35:28.793Z,-1.32
2023-03-07T04:38:35.004Z,-1.42
2023-03-07T04:41:42.947Z,-1.45
2023-03-07T04:44:55.436Z,-1.51
2023-03-07T04:48:04.974Z,-1.46
2023-03-07T04:51:14.920Z,-1.51
2023-03-07T04:54:22.266Z,-1.51
2023-03-07T04:57:30.062Z,-1.63
2023-03-07T05:00:37.279Z,-1.56
2023-03-07T05:03:43.609Z,-1.62
2023-03-07T05:07:06.819Z,-1.78
2023-03-07T05:10:15.138Z,-1.83
2023-03-07T05:13:28.848Z,-1.87
2023-03-07T05:16:40.698Z,-1.97
2023-03-07T05:19:47.748Z,-2.07
2023-03-07T05:23:02.023Z,-2.02
2023-03-07T05:26:09.787Z,-2.08
2023-03-07T05:29:17.585Z,-2.08
2023-03-07T05:32:25.041Z,-2.08
2023-03-07T05:35:31.558Z,-2.13
2023-03-07T05:38:42.998Z,-2.08
2023-03-07T05:41:49.075Z,-2.10
2023-03-07T05:44:56.331Z,-2.08
2023-03-07T05:48:02.947Z,-2.14
2023-03-07T05:51:11.996Z,-2.13
2023-03-07T05:54:21.545Z,-2.14
2023-03-07T05:57:28.848Z,-2.16
2023-03-07T06:00:35.126Z,-2.06
2023-03-07T06:03:43.187Z,-1.97
2023-03-07T06:06:49.818Z,-1.97
2023-03-07T06:09:59.237Z,-1.80
2023-03-07T06:13:05.332Z,-1.75
2023-03-07T06:16:12.577Z,-1.66
2023-03-07T06:19:23.060Z,-1.69
2023-03-07T06:22:34.751Z,-1.56
2023-03-07T06:25:44.534Z,-1.44
2023-03-07T06:28:56.443Z,-1.37
2023-03-07T06:32:05.031Z,-1.21
2023-03-07T06:35:13.344Z,-1.04
2023-03-07T06:38:21.404Z,-0.85
2023-03-07T06:41:31.001Z,-0.73
2023-03-07T06:44:42.916Z,-0.27
2023-03-07T06:47:50.949Z,0.06
2023-03-07T06:50:56.898Z,0.19
2023-03-07T06:54:04.129Z,0.30
2023-03-07T06:57:12.792Z,0.37
2023-03-07T07:00:22.956Z,0.52
2023-03-07T07:03:29.530Z,0.75
2023-03-07T07:06:39.294Z,1.11
2023-03-07T07:09:45.449Z,1.01
2023-03-07T07:12:56.892Z,1.20
2023-03-07T07:16:09.011Z,1.24
2023-03-07T07:19:18.463Z,1.51
2023-03-07T07:22:26.426Z,1.52
2023-03-07T07:25:33.219Z,1.13
2023-03-07T07:28:41.845Z,1.17
2023-03-07T07:31:50.088Z,0.90
2023-03-07T07:34:58.110Z,0.47
2023-03-07T07:38:04.995Z,0.43
2023-03-07T07:41:10.897Z,0.44
2023-03-07T07:44:20.516Z,0.26
2023-03-07T07:47:36.177Z,0.18
2023-03-07T07:50:43.293Z,0.20
2023-03-07T07:53:49.389Z,0.10
2023-03-07T07:57:00.860Z,0.24
2023-03-07T08:00:13.049Z,0.39
2023-03-07T08:03:20.243Z,0.68
2023-03-07T08:06:31.107Z,0.45
2023-03-07T08:09:39.057Z,0.60
2023-03-07T08:12:45.690Z,0.59
2023-03-07T08:15:55.133Z,0.81
2023-03-07T08:19:02.119Z,0.91
2023-03-07T08:22:08.946Z,1.10
2023-03-07T08:25:25.203Z,1.07
2023-03-07T08:28:32.157Z,1.08
2023-03-07T08:31:40.630Z,1.21
2023-03-07T08:34:47.635Z,1.57
2023-03-07T08:37:59.835Z,1.29
2023-03-07T08:41:14.064Z,1.17
2023-03-07T08:44:20.040Z,1.11
2023-03-07T08:47:35.972Z,1.53
2023-03-07T08:50:43.095Z,1.75
2023-03-07T08:53:50.393Z,1.90
2023-03-07T08:57:02.911Z,2.18
2023-03-07T09:00:18.181Z,2.33
2023-03-07T09:03:26.712Z,2.10
2023-03-07T09:06:33.797Z,2.24
2023-03-07T09:09:45.909Z,2.45
2023-03-07T09:12:55.451Z,3.02
2023-03-07T09:16:01.482Z,3.28
2023-03-07T09:19:10.935Z,3.04
2023-03-07T09:22:16.829Z,2.82
2023-03-07T09:25:23.577Z,3.13
2023-03-07T09:28:32.619Z,2.65
2023-03-07T09:31:45.982Z,2.61
2023-03-07T09:34:55.759Z,2.86
2023-03-07T09:38:04.951Z,2.53
2023-03-07T09:41:39.370Z,2.55
2023-03-07T09:45:23.290Z,2.99
2023-03-07T09:49:15.595Z,4.22
2023-03-07T09:52:31.126Z,5.15
2023-03-07T09:55:37.489Z,5.85
2023-03-07T09:58:58.124Z,6.78
2023-03-07T10:02:18.599Z,7.23
2023-03-07T10:05:40.734Z,7.10
2023-03-07T10:08:49.367Z,7.25
2023-03-07T10:12:42.039Z,7.91
2023-03-07T10:15:53.693Z,7.04
2023-03-07T10:19:17.077Z,6.27
2023-03-07T10:22:43.062Z,6.60
2023-03-07T10:25:59.916Z,6.95
2023-03-07T10:29:19.753Z,7.74
2023-03-07T10:32:39.986Z,8.11
2023-03-07T10:35:55.169Z,7.08
2023-03-07T10:39:21.314Z,7.13
2023-03-07T10:42:46.360Z,7.32
2023-03-07T10:45:55.907Z,6.28
2023-03-07T10:49:17.182Z,5.60
2023-03-07T10:52:38.087Z,5.57
2023-03-07T10:55:47.019Z,5.34
2023-03-07T10:59:09.672Z,5.15
2023-03-07T11:02:40.554Z,4.44
2023-03-07T11:05:52.395Z,4.71
2023-03-07T11:08:59.745Z,5.28
2023-03-07T11:12:22.035Z,5.14
2023-03-07T11:15:30.760Z,5.27
2023-03-07T11:18:46.536Z,5.68
2023-03-07T11:21:58.503Z,5.01
2023-03-07T11:25:19.224Z,4.83
2023-03-07T11:28:33.695Z,4.76
2023-03-07T11:32:00.330Z,4.95
2023-03-07T11:35:18.809Z,5.05
2023-03-07T11:38:44.127Z,5.12
2023-03-07T11:41:58.879Z,4.92
2023-03-07T11:45:35.075Z,4.84
2023-03-07T11:49:08.732Z,4.64
2023-03-07T11:52:40.441Z,4.71
2023-03-07T11:56:16.465Z,4.48
2023-03-07T12:00:06.317Z,4.27
2023-03-07T12:04:07.189Z,4.39
2023-03-07T12:07:49.372Z,4.40
2023-03-07T12:11:19.616Z,4.33
2023-03-07T12:14:45.369Z,4.46
2023-03-07T12:18:15.684Z,4.26
2023-03-07T12:21:55.614Z,4.42
2023-03-07T12:25:29.145Z,4.19
2023-03-07T12:28:48.601Z,4.36
2023-03-07T12:32:03.760Z,4.41
2023-03-07T12:35:28.619Z,3.95
2023-03-07T12:38:50.055Z,3.98
2023-03-07T12:42:09.302Z,3.92
2023-03-07T12:45:20.870Z,3.83
2023-03-07T12:48:44.033Z,3.92
2023-03-07T12:51:58.610Z,4.00
2023-03-07T12:55:23.997Z,3.82
2023-03-07T12:58:46.159Z,3.61
2023-03-07T13:02:07.986Z,3.67
2023-03-07T13:05:24.297Z,3.59
2023-03-07T13:08:32.315Z,3.62
2023-03-07T13:11:39.131Z,3.59
2023-03-07T13:14:50.819Z,3.46
2023-03-07T13:18:03.041Z,3.46
2023-03-07T13:21:15.232Z,3.44
2023-03-07T13:24:38.041Z,3.58
2023-03-07T13:27:51.876Z,3.65
2023-03-07T13:31:43.122Z,3.33
2023-03-07T13:34:51.792Z,3.36
2023-03-07T13:38:02.301Z,3.34
2023-03-07T13:41:14.876Z,3.34
2023-03-07T13:44:41.137Z,3.44
2023-03-07T13:47:50.701Z,3.26
2023-03-07T13:51:12.666Z,3.30
2023-03-07T13:54:20.248Z,3.51
2023-03-07T13:57:38.125Z,3.55
2023-03-07T14:00:57.906Z,3.58
2023-03-07T14:04:24.256Z,3.38
2023-03-07T14:07:44.340Z,3.60
2023-03-07T14:10:51.084Z,3.53
2023-03-07T14:14:47.282Z,3.81
2023-03-07T14:18:22.876Z,3.73
2023-03-07T14:21:54.984Z,3.62
2023-03-07T14:25:40.989Z,3.74
2023-03-07T14:28:54.993Z,4.04
2023-03-07T14:32:03.709Z,3.98
2023-03-07T14:35:15.550Z,3.99
2023-03-07T14:38:28.670Z,4.01
2023-03-07T14:41:53.142Z,3.77
2023-03-07T14:45:21.740Z,3.67
2023-03-07T14:49:05.267Z,3.71
2023-03-07T14:52:30.452Z,3.58
2023-03-07T14:55:46.433Z,3.63
2023-03-07T14:58:58.796Z,3.47
2023-03-07T15:02:05.573Z,3.40
2023-03-07T15:05:19.871Z,3.57
2023-03-07T15:08:30.703Z,3.38
2023-03-07T15:11:45.590Z,3.37
2023-03-07T15:14:59.742Z,3.38
2023-03-07T15:18:17.591Z,3.18
2023-03-07T15:21:32.860Z,3.01
2023-03-07T15:24:46.330Z,2.93
2023-03-07T15:28:08.034Z,2.82
2023-03-07T15:31:15.503Z,2.67
2023-03-07T15:34:29.058Z,2.64
2023-03-07T15:37:37.788Z,2.58
2023-03-07T15:40:45.959Z,2.62
2023-03-07T15:44:09.080Z,2.67
2023-03-07T15:47:19.832Z,2.70
2023-03-07T15:50:30.199Z,2.61
2023-03-07T15:53:41.848Z,2.66
2023-03-07T15:56:48.109Z,2.66
2023-03-07T16:00:02.397Z,2.59
2023-03-07T16:03:28.708Z,2.53
2023-03-07T16:06:45.689Z,2.39
2023-03-07T16:09:52.004Z,2.37
2023-03-07T16:12:59.890Z,2.34
2023-03-07T16:16:24.018Z,2.34
2023-03-07T16:19:31.018Z,2.28
2023-03-07T16:22:36.948Z,2.24
2023-03-07T16:25:45.948Z,2.17
2023-03-07T16:28:52.739Z,2.19
2023-03-07T16:32:04.452Z,2.11
2023-03-07T16:35:19.496Z,2.03
2023-03-07T16:38:26.268Z,2.02
2023-03-07T16:41:32.280Z,2.04
2023-03-07T16:44:43.564Z,1.91
2023-03-07T16:47:56.211Z,1.95
2023-03-07T16:51:03.002Z,1.93
2023-03-07T16:54:13.250Z,1.86
2023-03-07T16:57:25.662Z,1.81
2023-03-07T17:00:33.530Z,1.81
2023-03-07T17:03:49.766Z,1.81
2023-03-07T17:07:04.335Z,1.84
2023-03-07T17:10:24.261Z,1.79
2023-03-07T17:13:30.328Z,1.75
2023-03-07T17:16:45.428Z,1.74
2023-03-07T17:19:55.146Z,1.73
2023-03-07T17:23:02.102Z,1.71
2023-03-07T17:26:09.882Z,1.68
2023-03-07T17:29:31.575Z,1.66
2023-03-07T17:32:37.711Z,1.68
2023-03-07T17:35:47.715Z,1.69
2023-03-07T17:38:53.827Z,1.62
2023-03-07T17:42:01.973Z,1.64
2023-03-07T17:45:09.695Z,1.64
2023-03-07T17:48:29.014Z,1.67
2023-03-07T17:51:37.660Z,1.71
2023-03-07T17:54:46.586Z,1.64
2023-03-07T17:57:55.288Z,1.65
2023-03-07T18:01:09.174Z,1.62
2023-03-07T18:04:15.222Z,1.60
2023-03-07T18:07:25.148Z,1.60
2023-03-07T18:10:31.464Z,1.52
2023-03-07T18:13:42.549Z,1.50
2023-03-07T18:16:56.317Z,1.41
2023-03-07T18:20:04.020Z,1.37
2023-03-07T18:23:12.665Z,1.37
2023-03-07T18:26:22.493Z,1.40
2023-03-07T18:29:30.963Z,1.41
2023-03-07T18:32:38.110Z,1.47
2023-03-07T18:35:44.362Z,1.45
2023-03-07T18:38:54.768Z,1.50
2023-03-07T18:42:00.700Z,1.50
2023-03-07T18:45:09.111Z,1.47
2023-03-07T18:48:16.566Z,1.41
2023-03-07T18:51:27.197Z,1.40
2023-03-07T18:54:35.787Z,1.36
2023-03-07T18:57:42.567Z,1.39
2023-03-07T19:00:48.917Z,1.38
2023-03-07T19:04:01.350Z,1.38
2023-03-07T19:07:08.963Z,1.34
2023-03-07T19:10:18.505Z,1.32
2023-03-07T19:13:24.651Z,1.27
2023-03-07T19:16:32.372Z,1.40
2023-03-07T19:19:38.995Z,1.43
2023-03-07T19:22:45.899Z,1.46
2023-03-07T19:25:54.662Z,1.39
2023-03-07T19:29:04.998Z,1.47
2023-03-07T19:32:11.232Z,1.53
2023-03-07T19:35:18.439Z,1.70
2023-03-07T19:38:24.628Z,1.78
2023-03-07T19:41:37.452Z,1.82
2023-03-07T19:44:43.933Z,1.91
2023-03-07T19:47:51.024Z,1.96
2023-03-07T19:50:57.830Z,2.12
2023-03-07T19:54:04.699Z,2.14
2023-03-07T19:57:15.218Z,2.27
2023-03-07T20:00:24.705Z,2.45
2023-03-07T20:03:30.826Z,2.41
2023-03-07T20:06:38.019Z,2.38
2023-03-07T20:09:44.225Z,2.36
2023-03-07T20:12:54.841Z,2.28
2023-03-07T20:16:01.072Z,2.24
2023-03-07T20:19:13.246Z,2.38
2023-03-07T20:22:20.868Z,2.44
2023-03-07T20:25:31.543Z,2.44
2023-03-07T20:28:41.453Z,2.49
2023-03-07T20:31:51.058Z,2.29
2023-03-07T20:34:59.696Z,2.35
2023-03-07T20:38:06.747Z,2.33
2023-03-07T20:41:17.894Z,2.24
2023-03-07T20:44:29.424Z,2.36
2023-03-07T20:51:10.321Z,2.26
2023-03-07T20:54:20.218Z,2.37
2023-03-07T20:57:27.380Z,2.38
2023-03-07T21:00:35.965Z,2.33
2023-03-07T21:03:42.874Z,2.21
2023-03-07T21:06:50.943Z,2.13
2023-03-07T21:09:57.645Z,2.09
2023-03-07T21:13:04.976Z,2.08
2023-03-07T21:16:18.224Z,2.01
2023-03-07T21:19:24.183Z,2.04
2023-03-07T21:22:31.239Z,2.00
2023-03-07T21:25:38.312Z,1.97
2023-03-07T21:28:45.385Z,2.07
2023-03-07T21:31:54.342Z,1.98
2023-03-07T21:35:01.177Z,1.99
2023-03-07T21:38:08.114Z,1.95
2023-03-07T21:41:16.234Z,1.88
2023-03-07T21:44:22.398Z,2.00
2023-03-07T21:47:34.075Z,2.11
2023-03-07T21:50:40.943Z,1.98
2023-03-07T21:53:47.757Z,2.08
2023-03-07T21:56:53.734Z,1.98
2023-03-07T22:00:00.398Z,1.94
2023-03-07T22:03:12.984Z,2.03
2023-03-07T22:06:19.770Z,2.15
2023-03-07T22:09:25.756Z,1.99
2023-03-07T22:12:33.129Z,2.11
2023-03-07T22:15:42.246Z,2.01
2023-03-07T22:18:56.044Z,1.89
2023-03-07T22:22:01.941Z,1.88
2023-03-07T22:25:10.178Z,1.97
2023-03-07T22:28:19.404Z,1.97
2023-03-07T22:31:27.216Z,2.05
2023-03-07T22:34:35.883Z,2.06
2023-03-07T22:37:42.618Z,2.11
2023-03-07T22:40:48.689Z,2.14
2023-03-07T22:43:56.807Z,2.11
2023-03-07T22:47:02.724Z,2.01
2023-03-07T22:50:14.295Z,1.97
2023-03-07T22:53:20.478Z,1.84
2023-03-07T22:56:30.411Z,1.92
2023-03-07T22:59:36.449Z,1.87
2023-03-07T23:02:43.199Z,1.98
2023-03-07T23:05:51.781Z,1.94
2023-03-07T23:08:59.937Z,1.87
2023-03-07T23:12:13.714Z,1.83
2023-03-07T23:15:21.334Z,1.85
2023-03-07T23:18:27.934Z,1.84
2023-03-07T23:21:37.995Z,1.83
2023-03-07T23:24:44.094Z,1.86
2023-03-07T23:27:50.928Z,1.84
2023-03-07T23:30:57.178Z,1.80
2023-03-07T23:34:07.314Z,1.91
2023-03-07T23:37:15.886Z,1.89
2023-03-07T23:40:24.442Z,1.69
2023-03-07T23:43:30.436Z,1.59
2023-03-07T23:46:37.720Z,1.65
2023-03-07T23:49:43.585Z,1.67
2023-03-07T23:52:53.198Z,1.67
2023-03-07T23:55:59.051Z,1.64
2023-03-07T23:59:05.814Z,1.63
